Placerville, California
Current Conditions -  °F | °C
As of 3:55 PM on Friday 21 Nov 2014 (Local Time) from KPVF Reporting Station
Overcast Overcast  
Wind Chill: 50°   Ceiling: 7000
Heat Index: 50°   Visibility: 10mi
Dew Point: 45°   Wind: 3mph
Humidity: 82%   Direction: 270°W
Pressure: 30.11"   Gusts: NA
Location:  38.73°N, 120.8°W
Report Text: KPVF 212355Z AUTO 27003KT 10SM OVC070 10/07 A3011 RMK AO1
Loading
Personal Weather Stations






























Interactive Weather Map New forecast layout! Learn more

10-Day Weather Forecast

Advertisements
Track Severe Weather on mobile